Aérodrome :
LOGIN :

S'inscrire | Disclaimer

   EN    FR    IT 

 










Légende :    VFR   VFR Marginal   IFR   IFR Intensif   IFR Très Intensif
Visi : 
Plafond : 
>= 8 km
>= 3000ft
5 à 8 km
1000 à 3000 ft
1500m à 5 km
500 à 1000 ft
800 à 1500m
200 à 500 ft
< 800m
< 200 ft
Symboles :   Orages  Brouillard  Fortes neiges  Fortes précipitations  Vent > 20 kt
SIGMETs :   Divers  Orages  Givrage  Turbulence  Onde Orograph.  Cendres Volcan.






- Altitude de l'aérodrome : 1400 ft


LSME - Luzern Emmen

DERNIER METAR :
  • 151350Z VRB01KT 9999 FEW120 29/19 Q1012 RMK BLU+

METARs EXPIRÉS :
  • 151250Z VRB02KT CAVOK 28/19 Q1012 RMK BLU
  • 151220Z 00000KT CAVOK 27/18 Q1012 RMK BLU
  • 151150Z 10003KT 360V170 CAVOK 26/17 Q1013 RMK BLU
  • 151120Z 00000KT CAVOK 26/18 Q1013 RMK BLU
  • 151050Z AUTO VRB01KT 9999NDV SCT150 25/17 Q1013 RMK
  • 151020Z AUTO 00000KT 9999NDV SCT150 24/18 Q1014 RMK
  • 150950Z VRB01KT 9999 -RA FEW034 22/17 Q1014 RMK BLU+
  • 150920Z VRB02KT CAVOK 22/18 Q1014 RMK BLU
  • 150850Z 00000KT CAVOK 21/18 Q1014 RMK BLU

Prévision TAF périmée.



MET'MAP, la Météo Aéronautique d'un coup d'oeil ! - Copyright ORBIFLY Décembre 2007 - Disclaimer

ORBIFLY MET'MAP TEAM :

Programmation & Développement : Alexandra Zaïnal
Sur une idée originale de : Baudouin d'Aumeries
Soutien technique & logistique : Manuel Goepfert
Assistance : Marc-Olivier Méhu




SOURCES & CREDITS :

   NOAA